sensor_id;sensor_type;location;lat;lon;timestamp;temperature;humidity
48946;DHT22;34999;50.940;3.998;2022-12-08T00:02:02;3.20;99.90
48946;DHT22;34999;50.940;3.998;2022-12-08T00:04:31;3.20;99.90
48946;DHT22;34999;50.940;3.998;2022-12-08T00:07:20;3.20;99.90
48946;DHT22;34999;50.940;3.998;2022-12-08T00:10:17;3.20;99.90
48946;DHT22;34999;50.940;3.998;2022-12-08T00:13:05;3.10;99.90
48946;DHT22;34999;50.940;3.998;2022-12-08T00:15:35;3.10;99.90
48946;DHT22;34999;50.940;3.998;2022-12-08T00:18:04;3.10;99.90
48946;DHT22;34999;50.940;3.998;2022-12-08T00:20:34;3.10;99.90
48946;DHT22;34999;50.940;3.998;2022-12-08T00:23:03;3.10;99.90
48946;DHT22;34999;50.940;3.998;2022-12-08T00:25:34;3.10;99.90
48946;DHT22;34999;50.940;3.998;2022-12-08T00:28:03;3.00;99.90
48946;DHT22;34999;50.940;3.998;2022-12-08T00:30:31;3.00;99.90
48946;DHT22;34999;50.940;3.998;2022-12-08T00:33:01;3.00;99.90
48946;DHT22;34999;50.940;3.998;2022-12-08T00:35:30;3.00;99.90
48946;DHT22;34999;50.940;3.998;2022-12-08T00:37:58;3.00;99.90
48946;DHT22;34999;50.940;3.998;2022-12-08T00:40:27;3.00;99.90
48946;DHT22;34999;50.940;3.998;2022-12-08T00:42:55;3.00;99.90
48946;DHT22;34999;50.940;3.998;2022-12-08T00:45:24;3.00;99.90
48946;DHT22;34999;50.940;3.998;2022-12-08T00:47:52;2.90;99.90
48946;DHT22;34999;50.940;3.998;2022-12-08T00:50:22;2.90;99.90
48946;DHT22;34999;50.940;3.998;2022-12-08T00:52:50;2.90;99.90
48946;DHT22;34999;50.940;3.998;2022-12-08T00:55:18;2.90;99.90
48946;DHT22;34999;50.940;3.998;2022-12-08T00:57:47;2.90;99.90
48946;DHT22;34999;50.940;3.998;2022-12-08T01:00:15;2.90;99.90
48946;DHT22;34999;50.940;3.998;2022-12-08T01:02:44;2.90;99.90
48946;DHT22;34999;50.940;3.998;2022-12-08T01:05:12;2.90;99.90
48946;DHT22;34999;50.940;3.998;2022-12-08T01:07:42;2.80;99.90
48946;DHT22;34999;50.940;3.998;2022-12-08T01:10:11;2.90;99.90
48946;DHT22;34999;50.940;3.998;2022-12-08T01:12:39;2.80;99.90
48946;DHT22;34999;50.940;3.998;2022-12-08T01:15:08;2.80;99.90
48946;DHT22;34999;50.940;3.998;2022-12-08T01:17:37;2.80;99.90
48946;DHT22;34999;50.940;3.998;2022-12-08T01:20:06;2.80;99.90
48946;DHT22;34999;50.940;3.998;2022-12-08T01:22:34;2.80;99.90
48946;DHT22;34999;50.940;3.998;2022-12-08T01:25:04;2.80;99.90
48946;DHT22;34999;50.940;3.998;2022-12-08T01:27:33;2.70;99.90
48946;DHT22;34999;50.940;3.998;2022-12-08T01:30:01;2.70;99.90
48946;DHT22;34999;50.940;3.998;2022-12-08T01:32:30;2.70;99.90
48946;DHT22;34999;50.940;3.998;2022-12-08T01:34:59;2.70;99.90
48946;DHT22;34999;50.940;3.998;2022-12-08T01:37:28;2.70;99.90
48946;DHT22;34999;50.940;3.998;2022-12-08T01:39:56;2.70;99.90
48946;DHT22;34999;50.940;3.998;2022-12-08T01:42:26;2.80;99.90
48946;DHT22;34999;50.940;3.998;2022-12-08T01:44:59;2.80;99.90
48946;DHT22;34999;50.940;3.998;2022-12-08T01:47:33;2.80;99.90
48946;DHT22;34999;50.940;3.998;2022-12-08T01:50:06;2.80;99.90
48946;DHT22;34999;50.940;3.998;2022-12-08T01:52:38;2.80;99.90
48946;DHT22;34999;50.940;3.998;2022-12-08T01:55:11;2.80;99.90
48946;DHT22;34999;50.940;3.998;2022-12-08T01:57:44;2.80;99.90
48946;DHT22;34999;50.940;3.998;2022-12-08T02:00:15;2.80;99.90
48946;DHT22;34999;50.940;3.998;2022-12-08T02:02:52;2.90;99.90
48946;DHT22;34999;50.940;3.998;2022-12-08T02:05:23;2.90;99.90
48946;DHT22;34999;50.940;3.998;2022-12-08T02:07:53;2.90;99.90
48946;DHT22;34999;50.940;3.998;2022-12-08T02:10:24;2.90;99.90
48946;DHT22;34999;50.940;3.998;2022-12-08T02:12:56;3.00;99.90
48946;DHT22;34999;50.940;3.998;2022-12-08T02:15:32;3.00;99.90
48946;DHT22;34999;50.940;3.998;2022-12-08T02:18:21;3.00;99.90
48946;DHT22;34999;50.940;3.998;2022-12-08T02:20:55;3.00;99.90
48946;DHT22;34999;50.940;3.998;2022-12-08T02:23:33;3.00;99.90
48946;DHT22;34999;50.940;3.998;2022-12-08T02:29:38;3.00;99.90
48946;DHT22;34999;50.940;3.998;2022-12-08T02:32:28;3.10;99.90
48946;DHT22;34999;50.940;3.998;2022-12-08T02:35:06;3.10;99.90
48946;DHT22;34999;50.940;3.998;2022-12-08T02:37:41;3.10;99.90
48946;DHT22;34999;50.940;3.998;2022-12-08T02:40:17;3.20;99.90
48946;DHT22;34999;50.940;3.998;2022-12-08T02:42:55;3.20;99.90
48946;DHT22;34999;50.940;3.998;2022-12-08T02:45:26;3.10;99.90
48946;DHT22;34999;50.940;3.998;2022-12-08T02:47:57;3.10;99.90
48946;DHT22;34999;50.940;3.998;2022-12-08T02:50:27;3.10;99.90
48946;DHT22;34999;50.940;3.998;2022-12-08T02:52:55;3.00;99.90
48946;DHT22;34999;50.940;3.998;2022-12-08T02:55:26;3.00;99.90
48946;DHT22;34999;50.940;3.998;2022-12-08T02:58:14;2.90;99.90
48946;DHT22;34999;50.940;3.998;2022-12-08T03:00:57;2.80;99.90
48946;DHT22;34999;50.940;3.998;2022-12-08T03:03:36;2.80;99.90
48946;DHT22;34999;50.940;3.998;2022-12-08T03:06:16;2.70;99.90
48946;DHT22;34999;50.940;3.998;2022-12-08T03:08:50;2.70;99.90
48946;DHT22;34999;50.940;3.998;2022-12-08T03:11:25;2.60;99.90
48946;DHT22;34999;50.940;3.998;2022-12-08T03:13:58;2.50;99.90
48946;DHT22;34999;50.940;3.998;2022-12-08T03:16:31;2.40;99.90
48946;DHT22;34999;50.940;3.998;2022-12-08T03:19:05;2.40;99.90
48946;DHT22;34999;50.940;3.998;2022-12-08T03:21:39;2.30;99.90
48946;DHT22;34999;50.940;3.998;2022-12-08T03:24:09;2.40;99.90
48946;DHT22;34999;50.940;3.998;2022-12-08T03:26:44;2.40;99.90
48946;DHT22;34999;50.940;3.998;2022-12-08T03:29:14;2.40;99.90
48946;DHT22;34999;50.940;3.998;2022-12-08T03:31:48;2.30;99.90
48946;DHT22;34999;50.940;3.998;2022-12-08T03:34:19;2.40;99.90
48946;DHT22;34999;50.940;3.998;2022-12-08T03:36:50;2.40;99.90
48946;DHT22;34999;50.940;3.998;2022-12-08T03:39:18;2.30;99.90
48946;DHT22;34999;50.940;3.998;2022-12-08T03:41:47;2.30;99.90
48946;DHT22;34999;50.940;3.998;2022-12-08T03:44:15;2.30;99.90
48946;DHT22;34999;50.940;3.998;2022-12-08T03:46:43;2.30;99.90
48946;DHT22;34999;50.940;3.998;2022-12-08T03:49:12;2.40;99.90
48946;DHT22;34999;50.940;3.998;2022-12-08T03:51:40;2.40;99.90
48946;DHT22;34999;50.940;3.998;2022-12-08T03:54:10;2.50;99.90
48946;DHT22;34999;50.940;3.998;2022-12-08T03:56:38;2.50;99.90
48946;DHT22;34999;50.940;3.998;2022-12-08T03:59:07;2.50;99.90
48946;DHT22;34999;50.940;3.998;2022-12-08T04:01:37;2.40;99.90
48946;DHT22;34999;50.940;3.998;2022-12-08T04:04:05;2.40;99.90
48946;DHT22;34999;50.940;3.998;2022-12-08T04:06:33;2.40;99.90
48946;DHT22;34999;50.940;3.998;2022-12-08T04:09:02;2.40;99.90
48946;DHT22;34999;50.940;3.998;2022-12-08T04:11:31;2.40;99.90
48946;DHT22;34999;50.940;3.998;2022-12-08T04:14:00;2.40;99.90
48946;DHT22;34999;50.940;3.998;2022-12-08T04:16:28;2.40;99.90
48946;DHT22;34999;50.940;3.998;2022-12-08T04:18:57;2.40;99.90
48946;DHT22;34999;50.940;3.998;2022-12-08T04:21:25;2.50;99.90
48946;DHT22;34999;50.940;3.998;2022-12-08T04:23:56;2.50;99.90
48946;DHT22;34999;50.940;3.998;2022-12-08T04:26:27;2.50;99.90
48946;DHT22;34999;50.940;3.998;2022-12-08T04:28:57;2.50;99.90
48946;DHT22;34999;50.940;3.998;2022-12-08T04:31:25;2.50;99.90
48946;DHT22;34999;50.940;3.998;2022-12-08T04:33:53;2.50;99.90
48946;DHT22;34999;50.940;3.998;2022-12-08T04:36:22;2.50;99.90
48946;DHT22;34999;50.940;3.998;2022-12-08T04:38:50;2.50;99.90
48946;DHT22;34999;50.940;3.998;2022-12-08T04:41:18;2.50;99.90
48946;DHT22;34999;50.940;3.998;2022-12-08T04:43:47;2.50;99.90
48946;DHT22;34999;50.940;3.998;2022-12-08T04:46:16;2.50;99.90
48946;DHT22;34999;50.940;3.998;2022-12-08T04:48:45;2.50;99.90
48946;DHT22;34999;50.940;3.998;2022-12-08T04:51:15;2.50;99.90
48946;DHT22;34999;50.940;3.998;2022-12-08T04:53:44;2.50;99.90
48946;DHT22;34999;50.940;3.998;2022-12-08T04:56:14;2.40;99.90
48946;DHT22;34999;50.940;3.998;2022-12-08T04:58:42;2.40;99.90
48946;DHT22;34999;50.940;3.998;2022-12-08T05:01:11;2.40;99.90
48946;DHT22;34999;50.940;3.998;2022-12-08T05:03:41;2.40;99.90
48946;DHT22;34999;50.940;3.998;2022-12-08T05:06:11;2.40;99.90
48946;DHT22;34999;50.940;3.998;2022-12-08T05:08:40;2.40;99.90
48946;DHT22;34999;50.940;3.998;2022-12-08T05:11:10;2.40;99.90
48946;DHT22;34999;50.940;3.998;2022-12-08T05:13:39;2.40;99.90
48946;DHT22;34999;50.940;3.998;2022-12-08T05:16:09;2.30;99.90
48946;DHT22;34999;50.940;3.998;2022-12-08T05:18:38;2.30;99.90
48946;DHT22;34999;50.940;3.998;2022-12-08T05:21:09;2.30;99.90
48946;DHT22;34999;50.940;3.998;2022-12-08T05:23:37;2.30;99.90
48946;DHT22;34999;50.940;3.998;2022-12-08T05:26:06;2.30;99.90
48946;DHT22;34999;50.940;3.998;2022-12-08T05:28:34;2.30;99.90
48946;DHT22;34999;50.940;3.998;2022-12-08T05:31:08;2.30;99.90
48946;DHT22;34999;50.940;3.998;2022-12-08T05:33:37;2.30;99.90
48946;DHT22;34999;50.940;3.998;2022-12-08T05:36:08;2.40;99.90
48946;DHT22;34999;50.940;3.998;2022-12-08T05:38:36;2.40;99.90
48946;DHT22;34999;50.940;3.998;2022-12-08T05:41:05;2.40;99.90
48946;DHT22;34999;50.940;3.998;2022-12-08T05:43:34;2.40;99.90
48946;DHT22;34999;50.940;3.998;2022-12-08T05:46:03;2.40;99.90
48946;DHT22;34999;50.940;3.998;2022-12-08T05:48:32;2.40;99.90
48946;DHT22;34999;50.940;3.998;2022-12-08T05:51:00;2.50;99.90
48946;DHT22;34999;50.940;3.998;2022-12-08T05:53:30;2.50;99.90
48946;DHT22;34999;50.940;3.998;2022-12-08T05:55:59;2.50;99.90
48946;DHT22;34999;50.940;3.998;2022-12-08T05:58:27;2.60;99.90
48946;DHT22;34999;50.940;3.998;2022-12-08T06:00:55;2.60;99.90
48946;DHT22;34999;50.940;3.998;2022-12-08T06:03:24;2.60;99.90
48946;DHT22;34999;50.940;3.998;2022-12-08T06:05:52;2.70;99.90
48946;DHT22;34999;50.940;3.998;2022-12-08T06:08:21;2.70;99.90
48946;DHT22;34999;50.940;3.998;2022-12-08T06:10:53;2.70;99.90
48946;DHT22;34999;50.940;3.998;2022-12-08T06:13:21;2.70;99.90
48946;DHT22;34999;50.940;3.998;2022-12-08T06:15:49;2.70;99.90
48946;DHT22;34999;50.940;3.998;2022-12-08T06:18:18;2.70;99.90
48946;DHT22;34999;50.940;3.998;2022-12-08T06:20:46;2.80;99.90
48946;DHT22;34999;50.940;3.998;2022-12-08T06:23:14;2.80;99.90
48946;DHT22;34999;50.940;3.998;2022-12-08T06:25:43;2.80;99.90
48946;DHT22;34999;50.940;3.998;2022-12-08T06:28:12;2.80;99.90
48946;DHT22;34999;50.940;3.998;2022-12-08T06:30:40;2.80;99.90
48946;DHT22;34999;50.940;3.998;2022-12-08T06:33:09;2.90;99.90
48946;DHT22;34999;50.940;3.998;2022-12-08T06:35:37;2.90;99.90
48946;DHT22;34999;50.940;3.998;2022-12-08T06:38:05;2.90;99.90
48946;DHT22;34999;50.940;3.998;2022-12-08T06:40:34;3.00;99.90
48946;DHT22;34999;50.940;3.998;2022-12-08T06:43:02;3.00;99.90
48946;DHT22;34999;50.940;3.998;2022-12-08T06:45:32;3.10;99.90
48946;DHT22;34999;50.940;3.998;2022-12-08T06:48:01;3.10;99.90
48946;DHT22;34999;50.940;3.998;2022-12-08T06:50:29;3.10;99.90
48946;DHT22;34999;50.940;3.998;2022-12-08T06:52:59;3.10;99.90
48946;DHT22;34999;50.940;3.998;2022-12-08T06:55:34;3.10;99.90
48946;DHT22;34999;50.940;3.998;2022-12-08T06:58:22;3.20;99.90
48946;DHT22;34999;50.940;3.998;2022-12-08T07:00:52;3.10;99.90
48946;DHT22;34999;50.940;3.998;2022-12-08T07:03:20;3.20;99.90
48946;DHT22;34999;50.940;3.998;2022-12-08T07:05:49;3.10;99.90
48946;DHT22;34999;50.940;3.998;2022-12-08T07:08:17;3.10;99.90
48946;DHT22;34999;50.940;3.998;2022-12-08T07:10:46;3.10;99.90
48946;DHT22;34999;50.940;3.998;2022-12-08T07:13:14;3.10;99.90
48946;DHT22;34999;50.940;3.998;2022-12-08T07:15:42;3.20;99.90
48946;DHT22;34999;50.940;3.998;2022-12-08T07:18:12;3.20;99.90
48946;DHT22;34999;50.940;3.998;2022-12-08T07:20:40;3.20;99.90
48946;DHT22;34999;50.940;3.998;2022-12-08T07:23:09;3.20;99.90
48946;DHT22;34999;50.940;3.998;2022-12-08T07:25:37;3.20;99.90
48946;DHT22;34999;50.940;3.998;2022-12-08T07:28:08;3.20;99.90
48946;DHT22;34999;50.940;3.998;2022-12-08T07:30:37;3.20;99.90
48946;DHT22;34999;50.940;3.998;2022-12-08T07:33:06;3.20;99.90
48946;DHT22;34999;50.940;3.998;2022-12-08T07:35:35;3.20;99.90
48946;DHT22;34999;50.940;3.998;2022-12-08T07:38:03;3.20;99.90
48946;DHT22;34999;50.940;3.998;2022-12-08T07:40:32;3.20;99.90
48946;DHT22;34999;50.940;3.998;2022-12-08T07:43:00;3.20;99.90
48946;DHT22;34999;50.940;3.998;2022-12-08T07:45:29;3.20;99.90
48946;DHT22;34999;50.940;3.998;2022-12-08T07:47:58;3.20;99.90
48946;DHT22;34999;50.940;3.998;2022-12-08T07:50:26;3.20;99.90
48946;DHT22;34999;50.940;3.998;2022-12-08T07:52:56;3.20;99.90
48946;DHT22;34999;50.940;3.998;2022-12-08T07:55:24;3.20;99.90
48946;DHT22;34999;50.940;3.998;2022-12-08T07:57:53;3.30;99.90
48946;DHT22;34999;50.940;3.998;2022-12-08T08:00:22;3.20;99.90
48946;DHT22;34999;50.940;3.998;2022-12-08T08:02:50;3.20;99.90
48946;DHT22;34999;50.940;3.998;2022-12-08T08:05:19;3.20;99.90
48946;DHT22;34999;50.940;3.998;2022-12-08T08:07:48;3.20;99.90
48946;DHT22;34999;50.940;3.998;2022-12-08T08:10:18;3.20;99.90
48946;DHT22;34999;50.940;3.998;2022-12-08T08:12:48;3.20;99.90
48946;DHT22;34999;50.940;3.998;2022-12-08T08:15:17;3.20;99.90
48946;DHT22;34999;50.940;3.998;2022-12-08T08:17:48;3.20;99.90
48946;DHT22;34999;50.940;3.998;2022-12-08T08:20:18;3.30;99.90
48946;DHT22;34999;50.940;3.998;2022-12-08T08:22:48;3.20;99.90
48946;DHT22;34999;50.940;3.998;2022-12-08T08:25:21;3.30;99.90
48946;DHT22;34999;50.940;3.998;2022-12-08T08:27:49;3.30;99.90
48946;DHT22;34999;50.940;3.998;2022-12-08T08:30:18;3.30;99.90
48946;DHT22;34999;50.940;3.998;2022-12-08T08:32:47;3.30;99.90
48946;DHT22;34999;50.940;3.998;2022-12-08T08:35:16;3.20;99.90
48946;DHT22;34999;50.940;3.998;2022-12-08T08:37:44;3.20;99.90
48946;DHT22;34999;50.940;3.998;2022-12-08T08:40:15;3.20;99.90
48946;DHT22;34999;50.940;3.998;2022-12-08T08:42:45;3.30;99.90
48946;DHT22;34999;50.940;3.998;2022-12-08T08:45:13;3.30;99.90
48946;DHT22;34999;50.940;3.998;2022-12-08T08:47:42;3.40;99.90
48946;DHT22;34999;50.940;3.998;2022-12-08T08:50:11;3.30;99.90
48946;DHT22;34999;50.940;3.998;2022-12-08T08:52:39;3.40;99.90
48946;DHT22;34999;50.940;3.998;2022-12-08T08:55:07;3.40;99.90
48946;DHT22;34999;50.940;3.998;2022-12-08T08:57:36;3.40;99.90
48946;DHT22;34999;50.940;3.998;2022-12-08T09:00:07;3.40;99.90
48946;DHT22;34999;50.940;3.998;2022-12-08T09:02:37;3.40;99.90
48946;DHT22;34999;50.940;3.998;2022-12-08T09:05:06;3.40;99.90
48946;DHT22;34999;50.940;3.998;2022-12-08T09:07:34;3.40;99.90
48946;DHT22;34999;50.940;3.998;2022-12-08T09:10:03;3.40;99.90
48946;DHT22;34999;50.940;3.998;2022-12-08T09:12:32;3.40;99.90
48946;DHT22;34999;50.940;3.998;2022-12-08T09:15:01;3.40;99.90
48946;DHT22;34999;50.940;3.998;2022-12-08T09:17:30;3.40;99.90
48946;DHT22;34999;50.940;3.998;2022-12-08T09:19:59;3.40;99.90
48946;DHT22;34999;50.940;3.998;2022-12-08T09:22:29;3.40;99.90
48946;DHT22;34999;50.940;3.998;2022-12-08T09:24:57;3.50;99.90
48946;DHT22;34999;50.940;3.998;2022-12-08T09:27:26;3.60;99.90
48946;DHT22;34999;50.940;3.998;2022-12-08T09:29:54;3.60;99.90
48946;DHT22;34999;50.940;3.998;2022-12-08T09:32:22;3.60;99.90
48946;DHT22;34999;50.940;3.998;2022-12-08T09:34:53;3.60;99.90
48946;DHT22;34999;50.940;3.998;2022-12-08T09:37:21;3.70;99.90
48946;DHT22;34999;50.940;3.998;2022-12-08T09:39:49;3.70;99.90
48946;DHT22;34999;50.940;3.998;2022-12-08T09:42:26;3.90;99.90
48946;DHT22;34999;50.940;3.998;2022-12-08T09:45:01;4.10;99.90
48946;DHT22;34999;50.940;3.998;2022-12-08T09:47:34;4.40;99.90
48946;DHT22;34999;50.940;3.998;2022-12-08T09:50:11;4.50;99.90
48946;DHT22;34999;50.940;3.998;2022-12-08T09:52:44;4.70;99.90
48946;DHT22;34999;50.940;3.998;2022-12-08T09:55:19;5.00;99.90
48946;DHT22;34999;50.940;3.998;2022-12-08T09:57:55;5.30;99.90
48946;DHT22;34999;50.940;3.998;2022-12-08T10:00:24;5.60;99.90
48946;DHT22;34999;50.940;3.998;2022-12-08T10:02:54;5.90;99.90
48946;DHT22;34999;50.940;3.998;2022-12-08T10:05:25;6.10;99.90
48946;DHT22;34999;50.940;3.998;2022-12-08T10:08:02;6.10;99.90
48946;DHT22;34999;50.940;3.998;2022-12-08T10:10:38;6.20;99.90
48946;DHT22;34999;50.940;3.998;2022-12-08T10:13:16;6.40;99.90
48946;DHT22;34999;50.940;3.998;2022-12-08T10:15:52;6.60;99.90
48946;DHT22;34999;50.940;3.998;2022-12-08T10:18:27;6.70;99.90
48946;DHT22;34999;50.940;3.998;2022-12-08T10:21:11;6.80;99.90
48946;DHT22;34999;50.940;3.998;2022-12-08T10:23:43;7.00;99.90
48946;DHT22;34999;50.940;3.998;2022-12-08T10:26:14;7.20;99.90
48946;DHT22;34999;50.940;3.998;2022-12-08T10:28:42;7.50;99.90
48946;DHT22;34999;50.940;3.998;2022-12-08T10:31:16;7.70;99.90
48946;DHT22;34999;50.940;3.998;2022-12-08T10:33:53;7.80;99.90
48946;DHT22;34999;50.940;3.998;2022-12-08T10:36:43;7.90;99.90
48946;DHT22;34999;50.940;3.998;2022-12-08T10:39:42;8.00;99.90
48946;DHT22;34999;50.940;3.998;2022-12-08T10:42:19;7.90;99.90
48946;DHT22;34999;50.940;3.998;2022-12-08T10:44:54;7.60;99.90
48946;DHT22;34999;50.940;3.998;2022-12-08T10:47:26;7.30;99.90
48946;DHT22;34999;50.940;3.998;2022-12-08T10:50:17;7.10;99.90
48946;DHT22;34999;50.940;3.998;2022-12-08T10:52:54;6.80;99.90
48946;DHT22;34999;50.940;3.998;2022-12-08T10:55:23;6.50;99.90
48946;DHT22;34999;50.940;3.998;2022-12-08T10:57:51;6.30;99.90
48946;DHT22;34999;50.940;3.998;2022-12-08T11:00:21;6.20;99.90
48946;DHT22;34999;50.940;3.998;2022-12-08T11:03:05;6.10;99.90
48946;DHT22;34999;50.940;3.998;2022-12-08T11:05:47;6.00;99.90
48946;DHT22;34999;50.940;3.998;2022-12-08T11:08:17;6.00;99.90
48946;DHT22;34999;50.940;3.998;2022-12-08T11:10:46;6.00;99.90
48946;DHT22;34999;50.940;3.998;2022-12-08T11:13:22;5.90;99.90
48946;DHT22;34999;50.940;3.998;2022-12-08T11:15:53;5.80;99.90
48946;DHT22;34999;50.940;3.998;2022-12-08T11:18:26;5.90;99.90
48946;DHT22;34999;50.940;3.998;2022-12-08T11:20:58;5.90;99.90
48946;DHT22;34999;50.940;3.998;2022-12-08T11:23:29;5.90;99.90
48946;DHT22;34999;50.940;3.998;2022-12-08T11:26:05;5.90;99.90
48946;DHT22;34999;50.940;3.998;2022-12-08T11:28:36;6.00;99.90
48946;DHT22;34999;50.940;3.998;2022-12-08T11:31:11;6.00;99.90
48946;DHT22;34999;50.940;3.998;2022-12-08T11:33:45;6.10;99.90
48946;DHT22;34999;50.940;3.998;2022-12-08T11:36:14;6.00;99.90
48946;DHT22;34999;50.940;3.998;2022-12-08T11:38:46;6.00;99.90
48946;DHT22;34999;50.940;3.998;2022-12-08T11:41:20;6.00;99.90
48946;DHT22;34999;50.940;3.998;2022-12-08T11:43:54;6.00;99.90
48946;DHT22;34999;50.940;3.998;2022-12-08T11:46:26;6.00;99.90
48946;DHT22;34999;50.940;3.998;2022-12-08T11:48:58;6.10;99.90
48946;DHT22;34999;50.940;3.998;2022-12-08T11:51:34;6.00;99.90
48946;DHT22;34999;50.940;3.998;2022-12-08T11:54:17;6.00;99.90
48946;DHT22;34999;50.940;3.998;2022-12-08T11:56:48;5.90;99.90
48946;DHT22;34999;50.940;3.998;2022-12-08T11:59:23;6.10;99.90
48946;DHT22;34999;50.940;3.998;2022-12-08T12:01:54;6.30;99.90
48946;DHT22;34999;50.940;3.998;2022-12-08T12:04:27;6.50;99.90
48946;DHT22;34999;50.940;3.998;2022-12-08T12:07:27;6.60;99.90
48946;DHT22;34999;50.940;3.998;2022-12-08T12:10:16;6.60;99.90
48946;DHT22;34999;50.940;3.998;2022-12-08T12:13:03;6.60;99.90
48946;DHT22;34999;50.940;3.998;2022-12-08T12:15:57;6.70;99.90
48946;DHT22;34999;50.940;3.998;2022-12-08T12:18:37;6.80;99.90
48946;DHT22;34999;50.940;3.998;2022-12-08T12:21:10;6.70;99.90
48946;DHT22;34999;50.940;3.998;2022-12-08T12:23:41;6.70;99.90
48946;DHT22;34999;50.940;3.998;2022-12-08T12:26:19;6.70;99.90
48946;DHT22;34999;50.940;3.998;2022-12-08T12:28:51;6.70;99.90
48946;DHT22;34999;50.940;3.998;2022-12-08T12:31:23;6.80;99.90
48946;DHT22;34999;50.940;3.998;2022-12-08T12:33:56;6.80;99.90
48946;DHT22;34999;50.940;3.998;2022-12-08T12:36:30;6.80;99.90
48946;DHT22;34999;50.940;3.998;2022-12-08T12:39:00;6.90;99.90
48946;DHT22;34999;50.940;3.998;2022-12-08T12:41:36;7.00;99.90
48946;DHT22;34999;50.940;3.998;2022-12-08T12:47:09;7.10;99.90
48946;DHT22;34999;50.940;3.998;2022-12-08T12:52:46;7.40;99.90
48946;DHT22;34999;50.940;3.998;2022-12-08T12:55:20;7.60;99.90
48946;DHT22;34999;50.940;3.998;2022-12-08T12:57:52;7.80;99.90
48946;DHT22;34999;50.940;3.998;2022-12-08T13:00:22;7.60;99.90
48946;DHT22;34999;50.940;3.998;2022-12-08T13:02:51;7.50;99.90
48946;DHT22;34999;50.940;3.998;2022-12-08T13:05:22;7.30;99.90
48946;DHT22;34999;50.940;3.998;2022-12-08T13:07:54;7.20;99.90
48946;DHT22;34999;50.940;3.998;2022-12-08T13:10:26;7.10;99.90
48946;DHT22;34999;50.940;3.998;2022-12-08T13:13:06;6.90;99.90
48946;DHT22;34999;50.940;3.998;2022-12-08T13:15:49;6.80;99.90
48946;DHT22;34999;50.940;3.998;2022-12-08T13:18:20;6.70;99.90
48946;DHT22;34999;50.940;3.998;2022-12-08T13:20:51;6.60;99.90
48946;DHT22;34999;50.940;3.998;2022-12-08T13:23:27;6.60;99.90
48946;DHT22;34999;50.940;3.998;2022-12-08T13:26:18;6.40;99.90
48946;DHT22;34999;50.940;3.998;2022-12-08T13:29:15;6.40;99.90
48946;DHT22;34999;50.940;3.998;2022-12-08T13:31:45;6.10;99.90
48946;DHT22;34999;50.940;3.998;2022-12-08T13:34:35;5.90;99.90
48946;DHT22;34999;50.940;3.998;2022-12-08T13:37:17;5.70;99.90
48946;DHT22;34999;50.940;3.998;2022-12-08T13:39:52;5.30;99.90
48946;DHT22;34999;50.940;3.998;2022-12-08T13:42:28;5.10;99.90
48946;DHT22;34999;50.940;3.998;2022-12-08T13:45:03;4.90;99.90
48946;DHT22;34999;50.940;3.998;2022-12-08T13:47:55;4.90;99.90
48946;DHT22;34999;50.940;3.998;2022-12-08T13:50:46;4.80;99.90
48946;DHT22;34999;50.940;3.998;2022-12-08T13:53:39;4.80;99.90
48946;DHT22;34999;50.940;3.998;2022-12-08T13:56:29;4.70;99.90
48946;DHT22;34999;50.940;3.998;2022-12-08T13:59:26;4.70;99.90
48946;DHT22;34999;50.940;3.998;2022-12-08T14:02:01;4.70;99.90
48946;DHT22;34999;50.940;3.998;2022-12-08T14:04:31;4.60;99.90
48946;DHT22;34999;50.940;3.998;2022-12-08T14:07:22;4.60;99.90
48946;DHT22;34999;50.940;3.998;2022-12-08T14:09:51;4.50;99.90
48946;DHT22;34999;50.940;3.998;2022-12-08T14:12:22;4.40;99.90
48946;DHT22;34999;50.940;3.998;2022-12-08T14:14:55;4.40;99.90
48946;DHT22;34999;50.940;3.998;2022-12-08T14:17:32;4.30;99.90
48946;DHT22;34999;50.940;3.998;2022-12-08T14:20:21;4.20;99.90
48946;DHT22;34999;50.940;3.998;2022-12-08T14:22:51;4.10;99.90
48946;DHT22;34999;50.940;3.998;2022-12-08T14:25:21;4.10;99.90
48946;DHT22;34999;50.940;3.998;2022-12-08T14:27:55;4.10;99.90
48946;DHT22;34999;50.940;3.998;2022-12-08T14:30:27;4.10;99.90
48946;DHT22;34999;50.940;3.998;2022-12-08T14:33:00;4.00;99.90
48946;DHT22;34999;50.940;3.998;2022-12-08T14:35:30;4.00;99.90
48946;DHT22;34999;50.940;3.998;2022-12-08T14:38:00;3.90;99.90
48946;DHT22;34999;50.940;3.998;2022-12-08T14:40:32;3.80;99.90
48946;DHT22;34999;50.940;3.998;2022-12-08T14:43:14;3.80;99.90
48946;DHT22;34999;50.940;3.998;2022-12-08T14:45:47;3.80;99.90
48946;DHT22;34999;50.940;3.998;2022-12-08T14:48:23;3.70;99.90
48946;DHT22;34999;50.940;3.998;2022-12-08T14:50:58;3.70;99.90
48946;DHT22;34999;50.940;3.998;2022-12-08T14:53:34;3.70;99.90
48946;DHT22;34999;50.940;3.998;2022-12-08T14:56:17;3.60;99.90
48946;DHT22;34999;50.940;3.998;2022-12-08T14:58:48;3.60;99.90
48946;DHT22;34999;50.940;3.998;2022-12-08T15:01:21;3.60;99.90
48946;DHT22;34999;50.940;3.998;2022-12-08T15:03:51;3.60;99.90
48946;DHT22;34999;50.940;3.998;2022-12-08T15:06:21;3.60;99.90
48946;DHT22;34999;50.940;3.998;2022-12-08T15:08:52;3.60;99.90
48946;DHT22;34999;50.940;3.998;2022-12-08T15:11:33;3.60;99.90
48946;DHT22;34999;50.940;3.998;2022-12-08T15:14:02;3.50;99.90
48946;DHT22;34999;50.940;3.998;2022-12-08T15:16:37;3.50;99.90
48946;DHT22;34999;50.940;3.998;2022-12-08T15:19:17;3.50;99.90
48946;DHT22;34999;50.940;3.998;2022-12-08T15:21:49;3.50;99.90
48946;DHT22;34999;50.940;3.998;2022-12-08T15:24:18;3.50;99.90
48946;DHT22;34999;50.940;3.998;2022-12-08T15:26:50;3.50;99.90
48946;DHT22;34999;50.940;3.998;2022-12-08T15:29:21;3.40;99.90
48946;DHT22;34999;50.940;3.998;2022-12-08T15:31:51;3.40;99.90
48946;DHT22;34999;50.940;3.998;2022-12-08T15:34:22;3.40;99.90
48946;DHT22;34999;50.940;3.998;2022-12-08T15:36:52;3.40;99.90
48946;DHT22;34999;50.940;3.998;2022-12-08T15:39:30;3.40;99.90
48946;DHT22;34999;50.940;3.998;2022-12-08T15:42:00;3.40;99.90
48946;DHT22;34999;50.940;3.998;2022-12-08T15:44:29;3.30;99.90
48946;DHT22;34999;50.940;3.998;2022-12-08T15:46:59;3.30;99.90
48946;DHT22;34999;50.940;3.998;2022-12-08T15:49:29;3.20;99.90
48946;DHT22;34999;50.940;3.998;2022-12-08T15:51:57;3.20;99.90
48946;DHT22;34999;50.940;3.998;2022-12-08T15:54:37;3.20;99.90
48946;DHT22;34999;50.940;3.998;2022-12-08T15:57:15;3.10;99.90
48946;DHT22;34999;50.940;3.998;2022-12-08T15:59:55;3.10;99.90
48946;DHT22;34999;50.940;3.998;2022-12-08T16:02:24;3.00;99.90
48946;DHT22;34999;50.940;3.998;2022-12-08T16:05:14;3.00;99.90
48946;DHT22;34999;50.940;3.998;2022-12-08T16:08:03;2.90;99.90
48946;DHT22;34999;50.940;3.998;2022-12-08T16:10:52;2.90;99.90
48946;DHT22;34999;50.940;3.998;2022-12-08T16:14:01;2.80;99.90
48946;DHT22;34999;50.940;3.998;2022-12-08T16:16:48;2.70;99.90
48946;DHT22;34999;50.940;3.998;2022-12-08T16:19:17;2.70;99.90
48946;DHT22;34999;50.940;3.998;2022-12-08T16:21:47;2.60;99.90
48946;DHT22;34999;50.940;3.998;2022-12-08T16:24:35;2.60;99.90
48946;DHT22;34999;50.940;3.998;2022-12-08T16:27:03;2.60;99.90
48946;DHT22;34999;50.940;3.998;2022-12-08T16:29:52;2.50;99.90